createdAt,value
2023-10-26T00:03:22.488Z,12.88
2023-10-26T00:09:02.570Z,13.02
2023-10-26T00:14:44.442Z,14.20
2023-10-26T00:20:25.080Z,14.13
2023-10-26T00:26:05.585Z,14.00
2023-10-26T00:31:47.364Z,17.23
2023-10-26T00:37:27.489Z,14.85
2023-10-26T00:43:07.766Z,15.13
2023-10-26T00:48:49.697Z,12.77
2023-10-26T00:54:30.671Z,13.48
2023-10-26T01:00:11.917Z,13.32
2023-10-26T01:05:53.698Z,15.48
2023-10-26T01:11:34.250Z,13.63
2023-10-26T01:17:14.636Z,12.70
2023-10-26T01:22:56.448Z,13.05
2023-10-26T01:28:36.514Z,14.23
2023-10-26T01:34:16.760Z,13.10
2023-10-26T01:39:58.450Z,14.00
2023-10-26T01:45:38.453Z,13.27
2023-10-26T01:51:18.770Z,13.65
2023-10-26T01:57:00.685Z,13.05
2023-10-26T02:02:40.742Z,13.20
2023-10-26T02:08:20.971Z,14.55
2023-10-26T02:14:02.366Z,12.95
2023-10-26T02:19:42.215Z,12.48
2023-10-26T02:25:22.635Z,12.27
2023-10-26T02:31:04.875Z,12.15
2023-10-26T02:36:44.923Z,12.88
2023-10-26T02:42:25.232Z,13.98
2023-10-26T02:48:06.957Z,13.15
2023-10-26T02:53:47.194Z,12.70
2023-10-26T02:59:27.686Z,13.25
2023-10-26T03:05:09.743Z,12.85
2023-10-26T03:10:50.062Z,13.48
2023-10-26T03:16:30.472Z,14.27
2023-10-26T03:22:12.484Z,13.43
2023-10-26T03:27:52.716Z,13.48
2023-10-26T03:33:32.712Z,13.18
2023-10-26T03:39:14.057Z,13.73
2023-10-26T03:44:54.126Z,14.27
2023-10-26T03:50:34.496Z,13.18
2023-10-26T03:56:16.337Z,13.70
2023-10-26T04:01:56.459Z,14.98
2023-10-26T04:07:36.854Z,13.27
2023-10-26T04:13:18.507Z,13.10
2023-10-26T04:18:58.664Z,13.88
2023-10-26T04:24:39.092Z,13.32
2023-10-26T04:30:21.112Z,14.98
2023-10-26T04:36:01.174Z,13.13
2023-10-26T04:41:41.405Z,13.50
2023-10-26T04:47:23.164Z,13.43
2023-10-26T04:53:03.942Z,14.13
2023-10-26T04:58:44.103Z,15.15
2023-10-26T05:04:25.746Z,13.95
2023-10-26T05:10:07.254Z,14.82
2023-10-26T05:15:47.568Z,13.63
2023-10-26T05:21:29.461Z,14.52
2023-10-26T05:27:10.046Z,14.02
2023-10-26T05:32:50.494Z,12.75
2023-10-26T05:38:32.062Z,12.13
2023-10-26T05:44:11.993Z,13.43
2023-10-26T05:49:52.257Z,13.35
2023-10-26T05:55:34.065Z,14.10
2023-10-26T06:01:14.226Z,12.45
2023-10-26T06:06:54.582Z,13.35
2023-10-26T06:12:36.214Z,13.98
2023-10-26T06:18:16.631Z,12.40
2023-10-26T06:23:57.407Z,14.15
2023-10-26T06:29:38.961Z,12.10
2023-10-26T06:35:19.204Z,12.77
2023-10-26T06:40:59.535Z,12.20
2023-10-26T06:46:41.065Z,13.50
2023-10-26T06:52:21.111Z,12.77
2023-10-26T06:58:01.529Z,13.23
2023-10-26T07:03:43.686Z,14.60
2023-10-26T07:09:25.620Z,13.88
2023-10-26T07:15:07.217Z,13.57
2023-10-26T07:20:48.940Z,17.10
2023-10-26T07:26:29.112Z,18.63
2023-10-26T07:32:09.504Z,13.80
2023-10-26T07:38:01.413Z,14.50
2023-10-26T07:43:49.856Z,15.45
2023-10-26T07:49:30.177Z,14.48
2023-10-26T07:55:12.132Z,15.18
2023-10-26T08:00:52.403Z,14.13
2023-10-26T08:06:32.911Z,11.88
2023-10-26T08:12:15.014Z,11.73
2023-10-26T08:17:55.484Z,14.43
2023-10-26T08:23:36.190Z,11.25
2023-10-26T08:29:27.292Z,12.07
2023-10-26T08:35:09.327Z,11.85
2023-10-26T08:40:51.205Z,10.85
2023-10-26T08:46:33.059Z,12.00
2023-10-26T08:52:13.472Z,14.05
2023-10-26T08:57:54.180Z,11.48
2023-10-26T09:03:36.661Z,33.70
2023-10-26T09:09:17.393Z,13.90
2023-10-26T09:15:01.782Z,13.30
2023-10-26T09:20:44.123Z,12.88
2023-10-26T09:26:24.444Z,11.45
2023-10-26T09:32:05.865Z,11.05
2023-10-26T09:37:51.531Z,11.32
2023-10-26T09:43:31.689Z,10.88
2023-10-26T09:49:12.092Z,10.63
2023-10-26T09:54:55.254Z,11.20
2023-10-26T10:00:36.830Z,10.07
2023-10-26T10:06:44.359Z,11.10
2023-10-26T10:12:37.097Z,10.57
2023-10-26T10:18:17.357Z,8.98
2023-10-26T10:23:57.556Z,8.98
2023-10-26T10:29:41.155Z,9.40
2023-10-26T10:35:40.578Z,8.32
2023-10-26T10:41:22.923Z,9.65
2023-10-26T10:47:04.591Z,10.02
2023-10-26T10:52:45.084Z,10.27
2023-10-26T10:58:25.124Z,10.32
2023-10-26T11:04:07.456Z,9.88
2023-10-26T11:09:48.235Z,10.45
2023-10-26T11:15:32.654Z,9.52
2023-10-26T11:21:18.437Z,9.32
2023-10-26T11:27:08.646Z,8.23
2023-10-26T11:32:49.122Z,9.57
2023-10-26T11:38:30.940Z,9.75
2023-10-26T11:44:25.022Z,11.75
2023-10-26T11:50:06.323Z,9.90
2023-10-26T11:55:47.974Z,9.32
2023-10-26T12:01:28.030Z,8.75
2023-10-26T12:07:08.082Z,8.65
2023-10-26T12:12:50.409Z,8.13
2023-10-26T12:18:30.753Z,8.00
2023-10-26T12:24:10.839Z,8.85
2023-10-26T12:29:52.503Z,7.28
2023-10-26T12:35:32.775Z,7.50
2023-10-26T12:41:12.999Z,6.18
2023-10-26T12:46:55.392Z,8.60
2023-10-26T12:52:35.888Z,6.43
2023-10-26T12:58:16.115Z,7.70
2023-10-26T13:03:59.419Z,8.32
2023-10-26T13:09:39.800Z,7.50
2023-10-26T13:15:20.986Z,5.90
2023-10-26T13:21:03.176Z,7.28
2023-10-26T13:26:43.590Z,7.13
2023-10-26T13:32:23.756Z,7.40
2023-10-26T13:38:05.191Z,10.27
2023-10-26T13:43:45.397Z,11.02
2023-10-26T13:49:25.776Z,10.63
2023-10-26T13:55:08.567Z,9.40
2023-10-26T14:00:48.952Z,9.07
2023-10-26T14:06:29.001Z,6.10
2023-10-26T14:12:10.697Z,7.70
2023-10-26T14:17:50.854Z,7.50
2023-10-26T14:23:31.178Z,5.78
2023-10-26T14:29:13.070Z,4.50
2023-10-26T14:34:53.002Z,5.28
2023-10-26T14:40:33.486Z,5.05
2023-10-26T14:46:15.289Z,5.53
2023-10-26T14:51:55.488Z,4.88
2023-10-26T14:57:35.886Z,4.90
2023-10-26T15:03:17.248Z,4.70
2023-10-26T15:08:57.592Z,4.55
2023-10-26T15:14:38.040Z,4.05
2023-10-26T15:20:23.659Z,3.95
2023-10-26T15:26:04.189Z,4.15
2023-10-26T15:31:44.813Z,4.68
2023-10-26T15:37:26.575Z,6.60
2023-10-26T15:43:06.790Z,3.60
2023-10-26T15:49:31.567Z,4.13
2023-10-26T15:54:51.885Z,3.90
2023-10-26T16:00:32.422Z,4.55
2023-10-26T16:06:13.775Z,4.60
2023-10-26T16:11:55.536Z,4.55
2023-10-26T16:17:35.619Z,4.35
2023-10-26T16:23:16.058Z,4.32
2023-10-26T16:28:57.688Z,5.00
2023-10-26T16:34:37.806Z,5.05
2023-10-26T16:40:18.464Z,4.60
2023-10-26T16:46:01.111Z,4.75
2023-10-26T16:51:41.598Z,4.57
2023-10-26T16:57:21.954Z,5.15
2023-10-26T17:03:05.908Z,5.22
2023-10-26T17:08:49.599Z,5.07
2023-10-26T17:14:35.650Z,3.80
2023-10-26T17:24:54.739Z,4.88
2023-10-26T17:30:35.160Z,4.00
2023-10-26T17:36:17.071Z,3.67
2023-10-26T17:42:03.068Z,3.20
2023-10-26T17:47:46.017Z,3.22
2023-10-26T17:53:30.050Z,3.70
2023-10-26T17:59:16.520Z,4.00
2023-10-26T18:04:57.067Z,3.20
2023-10-26T18:10:37.515Z,3.50
2023-10-26T18:16:27.997Z,3.60
2023-10-26T18:22:12.258Z,3.47
2023-10-26T18:27:56.786Z,3.00
2023-10-26T18:33:45.197Z,3.65
2023-10-26T18:39:28.752Z,4.03
2023-10-26T18:45:12.597Z,3.25
2023-10-26T18:50:53.886Z,2.78
2023-10-26T18:56:33.613Z,3.00
2023-10-26T19:02:13.975Z,3.00
2023-10-26T19:07:55.960Z,2.50
2023-10-26T19:13:36.264Z,2.50
2023-10-26T19:19:16.443Z,3.10
2023-10-26T19:24:58.079Z,2.97
2023-10-26T19:30:38.240Z,2.85
2023-10-26T19:36:18.500Z,2.60
2023-10-26T19:42:00.216Z,2.35
2023-10-26T19:47:40.455Z,2.30
2023-10-26T19:53:20.708Z,2.40
2023-10-26T19:59:02.300Z,2.75
2023-10-26T20:04:42.373Z,2.58
2023-10-26T20:10:22.910Z,2.35
2023-10-26T20:16:05.141Z,2.80
2023-10-26T20:21:45.881Z,2.97
2023-10-26T20:27:25.884Z,3.70
2023-10-26T20:33:07.687Z,3.28
2023-10-26T20:38:47.753Z,3.30
2023-10-26T20:44:28.083Z,3.40
2023-10-26T20:50:10.373Z,3.20
2023-10-26T20:55:58.053Z,3.72
2023-10-26T21:01:38.485Z,3.60
2023-10-26T21:07:20.005Z,3.70
2023-10-26T21:13:00.431Z,3.90
2023-10-26T21:18:40.554Z,3.88
2023-10-26T21:24:22.405Z,3.78
2023-10-26T21:30:02.571Z,3.47
2023-10-26T21:35:42.722Z,4.05
2023-10-26T21:41:24.338Z,4.30
2023-10-26T21:47:04.895Z,4.80
2023-10-26T21:52:45.015Z,4.72
2023-10-26T21:58:26.780Z,5.93
2023-10-26T22:04:21.542Z,6.22
2023-10-26T22:10:02.258Z,7.10
2023-10-26T22:15:44.437Z,7.53
2023-10-26T22:21:24.793Z,8.15
2023-10-26T22:27:05.436Z,7.75
2023-10-26T22:32:46.856Z,9.90
2023-10-26T22:38:26.671Z,9.57
2023-10-26T22:44:07.096Z,8.02
2023-10-26T22:49:48.896Z,8.32
2023-10-26T22:55:28.987Z,5.60
2023-10-26T23:01:09.063Z,7.40
2023-10-26T23:06:50.773Z,8.02
2023-10-26T23:12:30.860Z,8.27
2023-10-26T23:18:11.554Z,7.60
2023-10-26T23:23:53.008Z,7.13
2023-10-26T23:29:33.357Z,6.70
2023-10-26T23:35:13.687Z,7.38
2023-10-26T23:40:55.197Z,7.38
2023-10-26T23:46:35.140Z,6.78
2023-10-26T23:52:15.481Z,6.65
2023-10-26T23:57:57.033Z,6.63
